createdAt,value
2017-06-08T00:00:23.226Z,0
2017-06-08T00:01:23.241Z,0
2017-06-08T00:02:23.238Z,0
2017-06-08T00:03:23.255Z,0
2017-06-08T00:04:23.229Z,0
2017-06-08T00:05:23.250Z,0
2017-06-08T00:06:23.229Z,0
2017-06-08T00:07:23.229Z,0
2017-06-08T00:08:23.232Z,0
2017-06-08T00:09:23.229Z,0
2017-06-08T00:10:23.313Z,0
2017-06-08T00:11:23.234Z,0
2017-06-08T00:12:23.233Z,0
2017-06-08T00:13:23.234Z,0
2017-06-08T00:14:23.234Z,0
2017-06-08T00:15:23.234Z,0
2017-06-08T00:16:23.236Z,0
2017-06-08T00:17:23.233Z,0
2017-06-08T00:18:23.264Z,0
2017-06-08T00:19:23.239Z,0
2017-06-08T00:20:23.239Z,0
2017-06-08T00:21:23.240Z,0
2017-06-08T00:22:23.238Z,0
2017-06-08T00:23:23.241Z,0
2017-06-08T00:24:23.243Z,0
2017-06-08T00:25:23.242Z,0
2017-06-08T00:26:23.208Z,0
2017-06-08T00:27:23.279Z,0
2017-06-08T00:28:23.256Z,0
2017-06-08T00:29:23.247Z,0
2017-06-08T00:30:23.243Z,0
2017-06-08T00:31:23.165Z,0
2017-06-08T00:32:23.162Z,0
2017-06-08T00:33:23.249Z,0
2017-06-08T00:34:23.350Z,0
2017-06-08T00:35:23.256Z,0
2017-06-08T00:36:23.271Z,0
2017-06-08T00:37:23.183Z,0
2017-06-08T00:38:23.251Z,0
2017-06-08T00:39:23.182Z,0
2017-06-08T00:40:23.181Z,0
2017-06-08T00:41:23.273Z,0
2017-06-08T00:42:23.266Z,0
2017-06-08T00:43:23.276Z,0
2017-06-08T00:44:23.260Z,0
2017-06-08T00:45:23.231Z,0
2017-06-08T00:46:23.274Z,0
2017-06-08T00:47:23.265Z,0
2017-06-08T00:48:23.190Z,0
2017-06-08T00:49:23.238Z,0
2017-06-08T00:50:23.279Z,0
2017-06-08T00:51:23.271Z,0
2017-06-08T00:52:23.274Z,0
2017-06-08T00:53:23.273Z,0
2017-06-08T00:54:23.259Z,0
2017-06-08T00:55:23.207Z,0
2017-06-08T00:56:23.187Z,0
2017-06-08T00:57:23.188Z,0
2017-06-08T00:58:23.274Z,0
2017-06-08T00:59:23.196Z,0
2017-06-08T01:00:23.283Z,0
2017-06-08T01:01:23.274Z,0
2017-06-08T01:02:23.255Z,0
2017-06-08T01:03:23.274Z,0
2017-06-08T01:04:23.287Z,0
2017-06-08T01:05:23.358Z,0
2017-06-08T01:06:23.273Z,0
2017-06-08T01:07:23.283Z,0
2017-06-08T01:08:23.252Z,0
2017-06-08T01:09:23.255Z,0
2017-06-08T01:10:23.202Z,0
2017-06-08T01:11:23.289Z,0
2017-06-08T01:12:23.288Z,0
2017-06-08T01:13:23.287Z,0
2017-06-08T01:14:23.281Z,0
2017-06-08T01:15:23.289Z,0
2017-06-08T01:16:23.268Z,0
2017-06-08T01:17:23.282Z,0
2017-06-08T01:18:23.291Z,0
2017-06-08T01:19:23.282Z,0
2017-06-08T01:20:23.285Z,0
2017-06-08T01:21:23.287Z,0
2017-06-08T01:22:23.255Z,0
2017-06-08T01:23:23.206Z,0
2017-06-08T01:24:23.251Z,0
2017-06-08T01:25:23.276Z,0
2017-06-08T01:26:23.284Z,0
2017-06-08T01:27:23.205Z,0
2017-06-08T01:28:23.256Z,0
2017-06-08T01:29:23.284Z,0
2017-06-08T01:30:23.296Z,0
2017-06-08T01:31:23.259Z,0
2017-06-08T01:32:23.301Z,0
2017-06-08T01:33:23.295Z,0
2017-06-08T01:34:23.287Z,0
2017-06-08T01:35:23.287Z,0
2017-06-08T01:36:23.291Z,0
2017-06-08T01:37:23.259Z,0
2017-06-08T01:38:23.217Z,0
2017-06-08T01:39:23.304Z,0
2017-06-08T01:40:23.234Z,0
2017-06-08T01:41:23.232Z,0
2017-06-08T01:42:23.213Z,0
2017-06-08T01:43:23.302Z,0
2017-06-08T01:44:23.299Z,0
2017-06-08T01:45:23.302Z,0
2017-06-08T01:46:23.298Z,0
2017-06-08T01:47:23.305Z,0
2017-06-08T01:48:23.306Z,0
2017-06-08T01:49:23.301Z,0
2017-06-08T01:50:23.279Z,0
2017-06-08T01:51:23.295Z,0
2017-06-08T01:52:23.222Z,0
2017-06-08T01:53:23.208Z,0
2017-06-08T01:54:23.248Z,0
2017-06-08T01:55:23.255Z,0
2017-06-08T01:56:23.213Z,0
2017-06-08T01:57:23.250Z,0
2017-06-08T01:58:23.343Z,0
2017-06-08T01:59:23.213Z,0
2017-06-08T02:00:23.256Z,0
2017-06-08T02:01:23.255Z,0
2017-06-08T02:02:23.212Z,0
2017-06-08T02:03:23.292Z,0
2017-06-08T02:04:23.294Z,0
2017-06-08T02:05:23.305Z,0
2017-06-08T02:06:23.293Z,0
2017-06-08T02:07:23.294Z,0
2017-06-08T02:08:23.294Z,0
2017-06-08T02:09:23.297Z,0
2017-06-08T02:10:23.294Z,0
2017-06-08T02:11:31.711Z,0
2017-06-08T02:12:23.297Z,0
2017-06-08T02:13:23.284Z,0
2017-06-08T02:14:23.283Z,0
2017-06-08T02:16:23.283Z,0
2017-06-08T02:17:23.287Z,0
2017-06-08T02:18:23.394Z,0
2017-06-08T02:19:23.287Z,0
2017-06-08T02:20:23.284Z,0
2017-06-08T02:21:23.289Z,0
2017-06-08T02:22:23.286Z,0
2017-06-08T02:23:23.494Z,0
2017-06-08T02:24:23.231Z,0
2017-06-08T02:25:23.332Z,0
2017-06-08T02:26:23.256Z,0
2017-06-08T02:27:23.289Z,4
2017-06-08T02:28:23.287Z,4
2017-06-08T02:29:23.327Z,4
2017-06-08T02:30:23.323Z,4
2017-06-08T02:31:23.330Z,0
2017-06-08T02:32:23.246Z,4
2017-06-08T02:33:23.329Z,4
2017-06-08T02:34:23.313Z,4
2017-06-08T02:35:23.246Z,8
2017-06-08T02:36:23.243Z,4
2017-06-08T02:38:23.330Z,8
2017-06-08T02:39:23.438Z,8
2017-06-08T02:40:23.338Z,12
2017-06-08T02:41:23.327Z,12
2017-06-08T02:42:23.337Z,16
2017-06-08T02:43:23.339Z,16
2017-06-08T02:44:23.250Z,16
2017-06-08T02:45:23.336Z,20
2017-06-08T02:46:23.332Z,20
2017-06-08T02:47:23.308Z,20
2017-06-08T02:48:23.332Z,24
2017-06-08T02:49:23.327Z,28
2017-06-08T02:50:23.342Z,28
2017-06-08T02:51:23.294Z,32
2017-06-08T02:52:23.273Z,32
2017-06-08T02:53:23.308Z,36
2017-06-08T02:54:23.307Z,40
2017-06-08T02:55:23.309Z,40
2017-06-08T02:56:23.331Z,44
2017-06-08T02:57:23.309Z,48
2017-06-08T02:58:23.311Z,52
2017-06-08T02:59:23.316Z,52
2017-06-08T03:00:23.310Z,56
2017-06-08T03:01:23.311Z,60
2017-06-08T03:02:23.309Z,64
2017-06-08T03:03:23.317Z,68
2017-06-08T03:04:23.310Z,68
2017-06-08T03:05:23.262Z,76
2017-06-08T03:06:23.342Z,84
2017-06-08T03:07:23.315Z,96
2017-06-08T03:08:23.306Z,108
2017-06-08T03:09:23.283Z,120
2017-06-08T03:10:23.351Z,132
2017-06-08T03:11:23.266Z,144
2017-06-08T03:12:23.262Z,164
2017-06-08T03:13:23.351Z,176
2017-06-08T03:14:23.268Z,188
2017-06-08T03:15:23.358Z,200
2017-06-08T03:16:23.340Z,216
2017-06-08T03:17:23.348Z,232
2017-06-08T03:18:23.271Z,244
2017-06-08T03:19:23.351Z,260
2017-06-08T03:20:23.359Z,276
2017-06-08T03:21:23.348Z,292
2017-06-08T03:22:23.349Z,312
2017-06-08T03:23:23.347Z,336
2017-06-08T03:24:23.341Z,364
2017-06-08T03:25:23.351Z,392
2017-06-08T03:26:23.435Z,424
2017-06-08T03:27:23.455Z,452
2017-06-08T03:28:23.267Z,476
2017-06-08T03:29:23.323Z,504
2017-06-08T03:30:23.352Z,532
2017-06-08T03:31:23.277Z,560
2017-06-08T03:32:23.347Z,592
2017-06-08T03:33:23.277Z,624
2017-06-08T03:34:23.355Z,660
2017-06-08T03:35:23.274Z,696
2017-06-08T03:36:23.356Z,728
2017-06-08T03:37:23.275Z,756
2017-06-08T03:38:23.350Z,784
2017-06-08T03:39:23.278Z,812
2017-06-08T03:41:23.350Z,844
2017-06-08T03:42:23.275Z,844
2017-06-08T03:43:23.360Z,844
2017-06-08T03:44:23.356Z,844
2017-06-08T03:45:23.273Z,852
2017-06-08T03:46:23.305Z,872
2017-06-08T03:47:23.311Z,900
2017-06-08T03:48:23.387Z,936
2017-06-08T03:49:23.271Z,972
2017-06-08T03:50:23.311Z,1012
2017-06-08T03:51:23.269Z,1060
2017-06-08T03:52:23.309Z,1120
2017-06-08T03:53:23.271Z,1196
2017-06-08T03:54:23.311Z,1288
2017-06-08T03:55:23.367Z,1380
2017-06-08T03:56:23.362Z,1488
2017-06-08T03:57:23.368Z,1584
2017-06-08T03:58:23.287Z,1672
2017-06-08T03:59:23.363Z,1748
2017-06-08T04:00:23.483Z,1812
2017-06-08T04:01:23.287Z,1852
2017-06-08T04:02:23.368Z,1900
2017-06-08T04:03:23.380Z,1968
2017-06-08T04:04:23.293Z,2040
2017-06-08T04:05:23.333Z,2124
2017-06-08T04:06:23.373Z,2228
2017-06-08T04:07:23.372Z,2332
2017-06-08T04:08:23.297Z,2476
2017-06-08T04:09:23.352Z,2632
2017-06-08T04:10:23.352Z,2800
2017-06-08T04:11:23.382Z,2944
2017-06-08T04:12:23.375Z,3076
2017-06-08T04:13:23.323Z,3204
2017-06-08T04:14:23.287Z,3372
2017-06-08T04:15:23.348Z,3548
2017-06-08T04:16:23.346Z,3732
2017-06-08T04:17:23.343Z,3940
2017-06-08T04:18:23.350Z,4140
2017-06-08T04:19:23.344Z,4340
2017-06-08T04:20:23.353Z,4508
2017-06-08T04:21:23.348Z,4680
2017-06-08T04:22:23.348Z,4836
2017-06-08T04:23:23.351Z,4984
2017-06-08T04:24:23.349Z,5188
2017-06-08T04:25:23.362Z,5404
2017-06-08T04:26:23.366Z,5604
2017-06-08T04:27:23.365Z,5804
2017-06-08T04:28:23.362Z,6004
2017-06-08T04:29:23.364Z,6156
2017-06-08T04:30:23.364Z,6284
2017-06-08T04:31:23.383Z,6340
2017-06-08T04:32:23.365Z,6508
2017-06-08T04:33:23.368Z,6600
2017-06-08T04:34:23.368Z,6568
2017-06-08T04:35:23.366Z,6384
2017-06-08T04:36:23.368Z,6108
2017-06-08T04:37:23.388Z,5876
2017-06-08T04:38:23.309Z,5784
2017-06-08T04:39:23.304Z,5820
2017-06-08T04:40:23.377Z,5884
2017-06-08T04:41:23.305Z,6004
2017-06-08T04:42:23.388Z,6196
2017-06-08T04:43:23.389Z,6444
2017-06-08T04:44:23.398Z,6724
2017-06-08T04:45:23.375Z,6932
2017-06-08T04:46:23.375Z,6876
2017-06-08T04:47:23.375Z,6524
2017-06-08T04:48:23.375Z,6112
2017-06-08T04:49:23.376Z,5720
2017-06-08T04:50:23.381Z,5328
2017-06-08T04:51:23.378Z,5116
2017-06-08T04:52:23.379Z,5140
2017-06-08T04:53:23.380Z,5200
2017-06-08T04:54:23.380Z,5216
2017-06-08T04:55:23.380Z,5224
2017-06-08T04:56:23.381Z,5108
2017-06-08T04:57:23.384Z,4756
2017-06-08T04:58:23.382Z,4472
2017-06-08T04:59:23.381Z,4384
2017-06-08T05:00:23.383Z,4384
2017-06-08T05:01:23.384Z,4324
2017-06-08T05:02:23.387Z,4280
2017-06-08T05:03:23.383Z,4312
2017-06-08T05:04:23.386Z,4428
2017-06-08T05:05:23.324Z,4568
2017-06-08T05:06:23.321Z,4692
2017-06-08T05:07:23.517Z,4836
2017-06-08T05:08:23.314Z,5032
2017-06-08T05:09:23.407Z,5220
2017-06-08T05:10:23.323Z,5532
2017-06-08T05:11:23.367Z,5864
2017-06-08T05:12:23.401Z,6004
2017-06-08T05:13:23.413Z,6032
2017-06-08T05:14:23.403Z,6160
2017-06-08T05:15:23.407Z,6396
2017-06-08T05:16:23.378Z,6700
2017-06-08T05:17:23.391Z,7076
2017-06-08T05:18:23.411Z,7364
2017-06-08T05:19:23.431Z,7452
2017-06-08T05:20:23.330Z,7296
2017-06-08T05:21:23.417Z,6956
2017-06-08T05:22:23.325Z,6524
2017-06-08T05:23:23.407Z,6360
2017-06-08T05:24:23.417Z,6128
2017-06-08T05:25:23.334Z,6016
2017-06-08T05:26:23.391Z,6224
2017-06-08T05:27:23.425Z,6324
2017-06-08T05:28:23.411Z,6656
2017-06-08T05:29:23.414Z,7064
2017-06-08T05:30:23.415Z,7500
2017-06-08T05:31:23.325Z,7940
2017-06-08T05:32:23.434Z,8284
2017-06-08T05:33:23.327Z,8388
2017-06-08T05:34:23.420Z,8252
2017-06-08T05:35:23.421Z,7932
2017-06-08T05:36:23.425Z,7696
2017-06-08T05:37:23.326Z,7456
2017-06-08T05:38:23.414Z,7316
2017-06-08T05:39:23.422Z,7592
2017-06-08T05:40:23.329Z,7912
2017-06-08T05:41:23.430Z,8396
2017-06-08T05:42:23.436Z,9088
2017-06-08T05:43:23.528Z,10184
2017-06-08T05:44:23.421Z,11444
2017-06-08T05:45:23.432Z,12860
2017-06-08T05:46:23.408Z,13912
2017-06-08T05:47:23.414Z,14332
2017-06-08T05:48:23.412Z,14384
2017-06-08T05:49:23.409Z,14376
2017-06-08T05:50:23.411Z,14640
2017-06-08T05:51:23.417Z,15032
2017-06-08T05:52:23.411Z,15136
2017-06-08T05:53:23.414Z,15328
2017-06-08T05:54:23.412Z,15732
2017-06-08T05:55:23.414Z,15940
2017-06-08T05:56:23.434Z,15600
2017-06-08T05:57:23.413Z,15160
2017-06-08T05:58:23.410Z,14828
2017-06-08T05:59:23.421Z,14876
2017-06-08T06:00:23.393Z,15296
2017-06-08T06:01:23.485Z,15580
2017-06-08T06:02:23.435Z,15880
2017-06-08T06:03:23.486Z,16536
2017-06-08T06:04:23.451Z,17424
2017-06-08T06:05:23.441Z,18340
2017-06-08T06:06:23.442Z,19032
2017-06-08T06:07:23.443Z,19384
2017-06-08T06:08:23.439Z,19212
2017-06-08T06:09:23.439Z,19268
2017-06-08T06:10:23.403Z,19276
2017-06-08T06:11:23.441Z,19380
2017-06-08T06:12:23.358Z,18612
2017-06-08T06:13:23.352Z,18100
2017-06-08T06:14:23.495Z,18076
2017-06-08T06:15:23.442Z,17872
2017-06-08T06:16:23.492Z,17312
2017-06-08T06:17:23.442Z,16568
2017-06-08T06:18:23.367Z,15632
2017-06-08T06:19:23.443Z,15772
2017-06-08T06:20:23.440Z,15772
2017-06-08T06:21:23.446Z,16196
2017-06-08T06:22:23.447Z,16184
2017-06-08T06:23:23.449Z,16192
2017-06-08T06:24:23.407Z,16404
2017-06-08T06:25:23.362Z,16484
2017-06-08T06:26:23.441Z,16408
2017-06-08T06:27:23.392Z,17380
2017-06-08T06:28:23.450Z,16888
2017-06-08T06:29:23.365Z,17104
2017-06-08T06:30:23.450Z,17616
2017-06-08T06:31:23.451Z,17432
2017-06-08T06:32:23.444Z,16612
2017-06-08T06:33:23.439Z,15424
2017-06-08T06:34:23.384Z,14720
2017-06-08T06:35:23.452Z,14156
2017-06-08T06:36:23.462Z,13720
2017-06-08T06:37:23.377Z,13500
2017-06-08T06:38:23.453Z,13544
2017-06-08T06:39:23.432Z,13432
2017-06-08T06:40:23.460Z,13760
2017-06-08T06:41:23.450Z,13952
2017-06-08T06:42:23.460Z,14000
2017-06-08T06:43:23.465Z,14180
2017-06-08T06:44:23.467Z,14796
2017-06-08T06:45:23.421Z,15300
2017-06-08T06:46:23.471Z,15524
2017-06-08T06:47:23.465Z,15192
2017-06-08T06:48:23.469Z,14848
2017-06-08T06:49:23.464Z,14864
2017-06-08T06:50:23.463Z,15388
2017-06-08T06:51:23.473Z,15884
2017-06-08T06:52:23.377Z,15988
2017-06-08T06:53:23.462Z,16076
2017-06-08T06:54:23.465Z,16372
2017-06-08T06:55:23.468Z,16616
2017-06-08T06:56:23.410Z,16456
2017-06-08T06:57:23.415Z,16956
2017-06-08T06:58:23.470Z,18228
2017-06-08T06:59:23.368Z,19828
2017-06-08T07:00:23.366Z,21728
2017-06-08T07:01:23.410Z,23296
2017-06-08T07:02:23.404Z,24576
2017-06-08T07:03:23.358Z,26400
2017-06-08T07:04:23.369Z,26912
2017-06-08T07:05:23.404Z,27008
2017-06-08T07:06:23.473Z,27360
2017-06-08T07:07:23.430Z,26976
2017-06-08T07:08:23.443Z,26112
2017-06-08T07:09:23.469Z,25664
2017-06-08T07:10:23.428Z,25600
2017-06-08T07:11:23.462Z,25600
2017-06-08T07:12:23.394Z,25856
2017-06-08T07:13:23.480Z,26784
2017-06-08T07:14:23.462Z,28032
2017-06-08T07:15:23.480Z,29376
2017-06-08T07:16:23.480Z,30208
2017-06-08T07:17:23.433Z,29376
2017-06-08T07:18:23.474Z,27936
2017-06-08T07:19:23.452Z,27648
2017-06-08T07:20:23.435Z,27104
2017-06-08T07:21:23.472Z,26848
2017-06-08T07:22:23.398Z,25920
2017-06-08T07:23:23.397Z,24096
2017-06-08T07:24:23.489Z,23552
2017-06-08T07:25:23.494Z,23072
2017-06-08T07:26:23.447Z,22912
2017-06-08T07:27:23.450Z,23392
2017-06-08T07:28:23.449Z,24480
2017-06-08T07:29:23.476Z,24992
2017-06-08T07:30:23.447Z,24320
2017-06-08T07:31:23.552Z,22880
2017-06-08T07:32:23.452Z,20832
2017-06-08T07:33:23.454Z,19036
2017-06-08T07:34:23.455Z,18656
2017-06-08T07:35:23.453Z,19120
2017-06-08T07:36:23.467Z,19512
2017-06-08T07:37:23.464Z,19028
2017-06-08T07:38:23.554Z,18552
2017-06-08T07:39:23.466Z,19180
2017-06-08T07:40:23.472Z,20672
2017-06-08T07:41:23.471Z,20448
2017-06-08T07:42:23.470Z,19440
2017-06-08T07:43:23.466Z,18684
2017-06-08T07:44:23.470Z,18816
2017-06-08T07:45:23.469Z,19344
2017-06-08T07:46:23.541Z,19764
2017-06-08T07:47:23.403Z,20768
2017-06-08T07:48:23.409Z,21792
2017-06-08T07:49:23.448Z,22624
2017-06-08T07:50:23.406Z,22976
2017-06-08T07:51:23.531Z,23328
2017-06-08T07:52:23.472Z,24160
2017-06-08T07:53:23.498Z,24192
2017-06-08T07:54:23.411Z,22464
2017-06-08T07:55:23.411Z,20704
2017-06-08T07:56:23.497Z,20480
2017-06-08T07:57:23.496Z,20992
2017-06-08T07:58:23.414Z,21792
2017-06-08T07:59:23.415Z,21920
2017-06-08T08:00:23.476Z,22688
2017-06-08T08:01:23.546Z,23456
2017-06-08T08:02:23.491Z,23584
2017-06-08T08:03:23.501Z,22592
2017-06-08T08:04:23.443Z,19812
2017-06-08T08:05:23.499Z,17892
2017-06-08T08:06:23.417Z,17492
2017-06-08T08:07:23.483Z,17724
2017-06-08T08:08:23.463Z,18048
2017-06-08T08:09:23.502Z,18056
2017-06-08T08:10:23.505Z,17864
2017-06-08T08:11:23.498Z,17656
2017-06-08T08:12:23.421Z,17672
2017-06-08T08:13:23.447Z,18144
2017-06-08T08:14:23.484Z,18468
2017-06-08T08:15:23.496Z,18304
2017-06-08T08:16:23.507Z,17784
2017-06-08T08:17:23.507Z,17320
2017-06-08T08:18:23.491Z,16920
2017-06-08T08:19:23.538Z,16868
2017-06-08T08:20:23.430Z,17380
2017-06-08T08:21:23.508Z,17968
2017-06-08T08:22:23.508Z,18592
2017-06-08T08:23:23.425Z,19088
2017-06-08T08:24:23.515Z,19280
2017-06-08T08:25:23.503Z,19508
2017-06-08T08:26:23.473Z,20704
2017-06-08T08:27:23.427Z,22688
2017-06-08T08:28:23.522Z,24672
2017-06-08T08:29:23.489Z,25568
2017-06-08T08:30:23.513Z,25856
2017-06-08T08:31:23.514Z,25248
2017-06-08T08:32:23.426Z,24544
2017-06-08T08:33:23.515Z,24416
2017-06-08T08:34:23.521Z,24896
2017-06-08T08:35:23.429Z,25056
2017-06-08T08:36:23.501Z,24480
2017-06-08T08:37:23.498Z,24800
2017-06-08T08:38:23.505Z,26752
2017-06-08T08:39:23.415Z,28928
2017-06-08T08:40:23.502Z,31072
2017-06-08T08:41:23.501Z,32544
2017-06-08T08:42:23.505Z,33440
2017-06-08T08:43:23.502Z,34016
2017-06-08T08:44:23.506Z,33728
2017-06-08T08:45:23.505Z,31616
2017-06-08T08:46:23.497Z,29312
2017-06-08T08:47:23.490Z,26784
2017-06-08T08:48:23.495Z,25376
2017-06-08T08:49:23.492Z,24832
2017-06-08T08:50:23.495Z,24480
2017-06-08T08:51:23.494Z,25120
2017-06-08T08:52:23.497Z,26016
2017-06-08T08:53:23.497Z,25632
2017-06-08T08:54:23.497Z,23904
2017-06-08T08:55:23.497Z,21504
2017-06-08T08:56:23.498Z,19132
2017-06-08T08:57:23.500Z,17828
2017-06-08T08:58:23.497Z,17324
2017-06-08T08:59:23.495Z,17696
2017-06-08T09:00:23.500Z,18352
2017-06-08T09:01:23.502Z,19132
2017-06-08T09:02:23.496Z,20032
2017-06-08T09:03:23.499Z,20768
2017-06-08T09:04:23.499Z,20992
2017-06-08T09:05:23.499Z,20992
2017-06-08T09:06:23.502Z,20480
2017-06-08T09:07:23.516Z,20000
2017-06-08T09:08:23.517Z,19904
2017-06-08T09:09:23.521Z,20384
2017-06-08T09:10:23.518Z,21024
2017-06-08T09:11:23.519Z,21504
2017-06-08T09:12:23.519Z,22112
2017-06-08T09:13:23.517Z,22624
2017-06-08T09:14:23.525Z,23168
2017-06-08T09:15:23.519Z,23424
2017-06-08T09:16:23.527Z,24128
2017-06-08T09:17:23.504Z,24512
2017-06-08T09:18:23.461Z,24608
2017-06-08T09:19:23.497Z,23456
2017-06-08T09:20:23.551Z,22240
2017-06-08T09:21:23.542Z,21440
2017-06-08T09:22:23.528Z,21344
2017-06-08T09:23:23.458Z,21280
2017-06-08T09:24:23.466Z,20864
2017-06-08T09:25:23.543Z,20480
2017-06-08T09:26:23.460Z,19724
2017-06-08T09:27:23.500Z,18772
2017-06-08T09:28:23.541Z,17768
2017-06-08T09:29:23.549Z,17128
2017-06-08T09:30:23.469Z,16968
2017-06-08T09:31:23.554Z,17100
2017-06-08T09:32:23.461Z,17480
2017-06-08T09:33:23.453Z,17976
2017-06-08T09:34:23.543Z,18644
2017-06-08T09:35:23.550Z,19020
2017-06-08T09:36:23.549Z,19048
2017-06-08T09:37:23.548Z,18712
2017-06-08T09:38:23.460Z,18932
2017-06-08T09:39:23.507Z,20448
2017-06-08T09:40:23.511Z,22400
2017-06-08T09:41:23.555Z,24832
2017-06-08T09:42:23.467Z,27168
2017-06-08T09:43:23.531Z,29152
2017-06-08T09:44:23.525Z,31296
2017-06-08T09:45:23.554Z,32128
2017-06-08T09:46:23.535Z,34400
2017-06-08T09:47:23.471Z,38112
2017-06-08T09:48:23.464Z,42016
2017-06-08T09:49:23.513Z,44480
2017-06-08T09:50:23.557Z,45280
2017-06-08T09:51:23.473Z,44800
2017-06-08T09:52:23.551Z,43200
2017-06-08T09:53:23.562Z,40896
2017-06-08T09:54:23.473Z,38080
2017-06-08T09:55:23.556Z,35392
2017-06-08T09:56:23.476Z,32896
2017-06-08T09:57:23.571Z,31072
2017-06-08T09:58:23.487Z,29888
2017-06-08T09:59:23.526Z,28832
2017-06-08T10:00:23.542Z,28640
2017-06-08T10:01:23.571Z,28768
2017-06-08T10:02:23.479Z,28864
2017-06-08T10:03:23.570Z,28544
2017-06-08T10:04:23.562Z,28480
2017-06-08T10:05:23.523Z,29120
2017-06-08T10:06:23.565Z,29920
2017-06-08T10:07:23.546Z,31104
2017-06-08T10:08:23.523Z,31520
2017-06-08T10:09:23.546Z,31840
2017-06-08T10:10:23.551Z,32064
2017-06-08T10:11:23.550Z,32160
2017-06-08T10:12:23.547Z,32384
2017-06-08T10:13:23.550Z,33056
2017-06-08T10:14:23.550Z,34432
2017-06-08T10:15:23.566Z,36000
2017-06-08T10:16:23.552Z,38368
2017-06-08T10:17:23.610Z,41088
2017-06-08T10:18:23.572Z,44512
2017-06-08T10:19:23.572Z,47520
2017-06-08T10:20:23.549Z,48928
2017-06-08T10:21:23.494Z,48608
2017-06-08T10:22:23.571Z,47712
2017-06-08T10:23:23.575Z,47840
2017-06-08T10:24:23.573Z,50048
2017-06-08T10:25:23.582Z,53856
2017-06-08T10:26:23.682Z,58208
2017-06-08T10:27:23.584Z,62624
2017-06-08T10:28:23.573Z,66048
2017-06-08T10:29:23.589Z,67904
2017-06-08T10:30:23.576Z,68800
2017-06-08T10:31:23.587Z,68448
2017-06-08T10:32:23.573Z,66912
2017-06-08T10:33:23.586Z,65472
2017-06-08T10:34:23.570Z,64128
2017-06-08T10:35:23.560Z,63392
2017-06-08T10:36:23.587Z,64864
2017-06-08T10:37:23.550Z,67136
2017-06-08T10:38:23.566Z,68224
2017-06-08T10:39:23.499Z,71296
2017-06-08T10:40:23.502Z,74176
2017-06-08T10:41:23.505Z,83040
2017-06-08T10:42:23.499Z,80640
2017-06-08T10:43:23.499Z,138528
2017-06-08T10:44:23.590Z,174208
2017-06-08T10:45:23.563Z,174144
2017-06-08T10:46:23.498Z,100224
2017-06-08T10:47:23.583Z,124512
2017-06-08T10:48:23.642Z,119360
2017-06-08T10:49:23.501Z,111840
2017-06-08T10:50:23.592Z,102976
2017-06-08T10:51:23.600Z,114784
2017-06-08T10:52:23.508Z,124320
2017-06-08T10:53:23.506Z,119808
2017-06-08T10:54:23.594Z,91872
2017-06-08T10:55:23.597Z,76320
2017-06-08T10:56:23.512Z,71392
2017-06-08T10:57:23.580Z,72448
2017-06-08T10:58:23.576Z,137824
2017-06-08T10:59:23.578Z,145152
2017-06-08T11:00:23.577Z,179904
2017-06-08T11:01:23.582Z,191456
2017-06-08T11:02:23.576Z,147872
2017-06-08T11:03:23.576Z,137952
2017-06-08T11:04:23.580Z,140352
2017-06-08T11:05:23.575Z,106304
2017-06-08T11:06:23.577Z,122848
2017-06-08T11:07:23.577Z,177728
2017-06-08T11:08:23.579Z,168960
2017-06-08T11:09:23.581Z,166464
2017-06-08T11:10:23.581Z,164192
2017-06-08T11:11:23.579Z,153344
2017-06-08T11:12:23.587Z,157568
2017-06-08T11:13:23.584Z,154624
2017-06-08T11:14:23.583Z,151616
2017-06-08T11:15:23.581Z,155040
2017-06-08T11:16:23.584Z,159584
2017-06-08T11:17:23.583Z,162208
2017-06-08T11:18:23.624Z,163168
2017-06-08T11:19:23.583Z,164032
2017-06-08T11:20:23.583Z,163648
2017-06-08T11:21:23.590Z,162720
2017-06-08T11:22:23.585Z,148896
2017-06-08T11:23:23.593Z,123232
2017-06-08T11:24:23.591Z,143584
2017-06-08T11:25:23.586Z,151040
2017-06-08T11:26:23.592Z,145952
2017-06-08T11:27:23.528Z,161056
2017-06-08T11:28:23.617Z,157056
2017-06-08T11:29:23.610Z,154464
2017-06-08T11:30:23.612Z,150176
2017-06-08T11:31:23.527Z,144224
2017-06-08T11:32:23.614Z,146240
2017-06-08T11:33:23.718Z,137024
2017-06-08T11:34:23.614Z,113376
2017-06-08T11:35:23.619Z,119424
2017-06-08T11:36:23.524Z,137152
2017-06-08T11:37:23.522Z,121056
2017-06-08T11:38:23.615Z,139136
2017-06-08T11:39:23.558Z,154784
2017-06-08T11:40:23.603Z,150816
2017-06-08T11:41:23.528Z,147712
2017-06-08T11:42:23.533Z,148128
2017-06-08T11:43:23.536Z,150400
2017-06-08T11:44:23.562Z,151424
2017-06-08T11:45:23.560Z,154976
2017-06-08T11:46:23.559Z,144416
2017-06-08T11:47:23.532Z,129504
2017-06-08T11:48:23.500Z,131456
2017-06-08T11:49:23.502Z,142112
2017-06-08T11:50:23.518Z,100672
2017-06-08T11:51:23.519Z,145504
2017-06-08T11:52:23.559Z,135584
2017-06-08T11:53:23.522Z,147008
2017-06-08T11:54:23.590Z,115424
2017-06-08T11:55:23.593Z,110848
2017-06-08T11:56:23.596Z,93280
2017-06-08T11:57:23.590Z,82624
2017-06-08T11:58:23.712Z,94848
2017-06-08T11:59:23.594Z,63552
2017-06-08T12:00:23.701Z,60128
2017-06-08T12:01:23.596Z,62688
2017-06-08T12:02:23.601Z,67520
2017-06-08T12:03:23.597Z,76704
2017-06-08T12:04:23.589Z,78912
2017-06-08T12:05:23.631Z,69888
2017-06-08T12:06:23.547Z,68736
2017-06-08T12:07:23.639Z,80320
2017-06-08T12:08:23.548Z,97248
2017-06-08T12:09:23.595Z,132608
2017-06-08T12:10:23.639Z,125024
2017-06-08T12:11:23.634Z,113792
2017-06-08T12:12:23.641Z,98976
2017-06-08T12:13:23.613Z,116864
2017-06-08T12:14:23.620Z,91808
2017-06-08T12:15:23.618Z,90336
2017-06-08T12:16:23.617Z,82720
2017-06-08T12:17:23.617Z,74048
2017-06-08T12:18:23.617Z,68640
2017-06-08T12:19:23.737Z,65120
2017-06-08T12:20:23.622Z,63296
2017-06-08T12:21:23.621Z,63904
2017-06-08T12:22:23.624Z,66144
2017-06-08T12:23:23.623Z,68288
2017-06-08T12:24:23.620Z,68032
2017-06-08T12:25:23.616Z,70848
2017-06-08T12:26:23.626Z,71840
2017-06-08T12:27:23.624Z,75232
2017-06-08T12:28:23.622Z,92736
2017-06-08T12:29:23.630Z,92096
2017-06-08T12:30:23.629Z,91840
2017-06-08T12:31:23.623Z,89856
2017-06-08T12:32:23.626Z,107264
2017-06-08T12:33:23.626Z,133536
2017-06-08T12:34:23.629Z,171072
2017-06-08T12:35:23.629Z,156448
2017-06-08T12:36:23.626Z,87136
2017-06-08T12:37:23.626Z,76896
2017-06-08T12:38:23.628Z,78560
2017-06-08T12:39:23.644Z,99936
2017-06-08T12:40:23.630Z,132064
2017-06-08T12:41:23.631Z,121792
2017-06-08T12:42:23.550Z,124544
2017-06-08T12:43:23.630Z,150080
2017-06-08T12:44:23.551Z,155104
2017-06-08T12:45:23.530Z,153568
2017-06-08T12:46:23.547Z,115680
2017-06-08T12:47:23.500Z,105504
2017-06-08T12:48:23.572Z,143424
2017-06-08T12:49:23.526Z,121696
2017-06-08T12:50:23.623Z,132864
2017-06-08T12:51:23.577Z,124160
2017-06-08T12:52:23.553Z,136736
2017-06-08T12:53:23.551Z,125888
2017-06-08T12:54:23.614Z,123616
2017-06-08T12:55:23.655Z,123200
2017-06-08T12:56:23.660Z,122464
2017-06-08T12:57:23.657Z,118528
2017-06-08T12:58:23.580Z,120000
2017-06-08T12:59:23.618Z,113216
2017-06-08T13:00:23.660Z,79264
2017-06-08T13:01:23.605Z,78784
2017-06-08T13:02:23.577Z,99360
2017-06-08T13:03:23.571Z,110880
2017-06-08T13:04:23.643Z,111104
2017-06-08T13:05:23.641Z,109024
2017-06-08T13:06:23.644Z,104256
2017-06-08T13:07:23.646Z,101536
2017-06-08T13:08:23.649Z,101600
2017-06-08T13:09:23.653Z,104064
2017-06-08T13:10:23.655Z,104352
2017-06-08T13:11:23.652Z,108544
2017-06-08T13:12:23.676Z,109824
2017-06-08T13:13:23.648Z,111392
2017-06-08T13:14:23.652Z,114016
2017-06-08T13:15:23.578Z,100736
2017-06-08T13:16:23.661Z,115072
2017-06-08T13:17:23.589Z,113120
2017-06-08T13:18:23.665Z,110848
2017-06-08T13:19:23.667Z,110656
2017-06-08T13:20:23.678Z,106400
2017-06-08T13:21:23.673Z,93216